sensor_id;sensor_type;location;lat;lon;timestamp;P1;durP1;ratioP1;P2;durP2;ratioP2
67721;SDS011;58309;45.292;11.820;2023-09-19T00:02:16;21.77;;;7.05;;
67721;SDS011;58309;45.292;11.820;2023-09-19T00:04:42;22.25;;;7.57;;
67721;SDS011;58309;45.292;11.820;2023-09-19T00:07:08;26.15;;;7.78;;
67721;SDS011;58309;45.292;11.820;2023-09-19T00:09:34;16.92;;;7.80;;
67721;SDS011;58309;45.292;11.820;2023-09-19T00:12:05;19.05;;;7.85;;
67721;SDS011;58309;45.292;11.820;2023-09-19T00:14:32;22.17;;;8.30;;
67721;SDS011;58309;45.292;11.820;2023-09-19T00:17:03;25.13;;;8.40;;
67721;SDS011;58309;45.292;11.820;2023-09-19T00:19:36;17.70;;;8.80;;
67721;SDS011;58309;45.292;11.820;2023-09-19T00:22:03;18.25;;;8.65;;
67721;SDS011;58309;45.292;11.820;2023-09-19T00:24:29;23.50;;;8.85;;
67721;SDS011;58309;45.292;11.820;2023-09-19T00:26:55;18.38;;;8.02;;
67721;SDS011;58309;45.292;11.820;2023-09-19T00:29:21;19.83;;;7.97;;
67721;SDS011;58309;45.292;11.820;2023-09-19T00:31:48;17.27;;;7.50;;
67721;SDS011;58309;45.292;11.820;2023-09-19T00:34:15;23.65;;;8.10;;
67721;SDS011;58309;45.292;11.820;2023-09-19T00:36:41;27.52;;;7.97;;
67721;SDS011;58309;45.292;11.820;2023-09-19T00:39:08;17.60;;;7.57;;
67721;SDS011;58309;45.292;11.820;2023-09-19T00:41:34;22.98;;;8.30;;
67721;SDS011;58309;45.292;11.820;2023-09-19T00:44:03;26.98;;;8.13;;
67721;SDS011;58309;45.292;11.820;2023-09-19T00:46:30;24.10;;;7.88;;
67721;SDS011;58309;45.292;11.820;2023-09-19T00:48:57;21.50;;;7.38;;
67721;SDS011;58309;45.292;11.820;2023-09-19T00:51:24;17.35;;;8.05;;
67721;SDS011;58309;45.292;11.820;2023-09-19T00:53:51;17.45;;;7.82;;
67721;SDS011;58309;45.292;11.820;2023-09-19T00:56:17;22.63;;;9.32;;
67721;SDS011;58309;45.292;11.820;2023-09-19T00:58:44;19.40;;;8.38;;
67721;SDS011;58309;45.292;11.820;2023-09-19T01:01:11;24.20;;;8.63;;
67721;SDS011;58309;45.292;11.820;2023-09-19T01:03:39;29.42;;;10.85;;
67721;SDS011;58309;45.292;11.820;2023-09-19T01:06:06;20.00;;;9.20;;
67721;SDS011;58309;45.292;11.820;2023-09-19T01:08:33;25.50;;;10.13;;
67721;SDS011;58309;45.292;11.820;2023-09-19T01:11:20;24.70;;;9.70;;
67721;SDS011;58309;45.292;11.820;2023-09-19T01:13:58;22.45;;;9.57;;
67721;SDS011;58309;45.292;11.820;2023-09-19T01:16:35;23.38;;;10.48;;
67721;SDS011;58309;45.292;11.820;2023-09-19T01:22:09;22.88;;;9.95;;
67721;SDS011;58309;45.292;11.820;2023-09-19T01:30:20;21.88;;;10.15;;
67721;SDS011;58309;45.292;11.820;2023-09-19T01:32:51;25.13;;;11.07;;
67721;SDS011;58309;45.292;11.820;2023-09-19T01:35:19;22.13;;;10.27;;
67721;SDS011;58309;45.292;11.820;2023-09-19T01:37:45;26.15;;;10.57;;
67721;SDS011;58309;45.292;11.820;2023-09-19T01:40:12;28.75;;;11.18;;
67721;SDS011;58309;45.292;11.820;2023-09-19T01:45:20;25.92;;;10.35;;
67721;SDS011;58309;45.292;11.820;2023-09-19T01:47:51;22.35;;;10.10;;
67721;SDS011;58309;45.292;11.820;2023-09-19T01:58:27;17.10;;;8.68;;
67721;SDS011;58309;45.292;11.820;2023-09-19T02:00:59;15.05;;;8.57;;
67721;SDS011;58309;45.292;11.820;2023-09-19T02:03:25;21.85;;;9.27;;
67721;SDS011;58309;45.292;11.820;2023-09-19T02:05:53;19.45;;;8.63;;
67721;SDS011;58309;45.292;11.820;2023-09-19T02:08:20;21.55;;;9.75;;
67721;SDS011;58309;45.292;11.820;2023-09-19T02:10:50;22.77;;;9.65;;
67721;SDS011;58309;45.292;11.820;2023-09-19T02:13:18;20.38;;;9.90;;
67721;SDS011;58309;45.292;11.820;2023-09-19T02:15:45;25.55;;;11.13;;
67721;SDS011;58309;45.292;11.820;2023-09-19T02:18:11;22.45;;;9.30;;
67721;SDS011;58309;45.292;11.820;2023-09-19T02:20:40;20.70;;;10.10;;
67721;SDS011;58309;45.292;11.820;2023-09-19T02:23:06;27.60;;;11.93;;
67721;SDS011;58309;45.292;11.820;2023-09-19T02:25:33;25.45;;;10.82;;
67721;SDS011;58309;45.292;11.820;2023-09-19T02:27:58;25.50;;;11.05;;
67721;SDS011;58309;45.292;11.820;2023-09-19T02:30:26;26.88;;;10.82;;
67721;SDS011;58309;45.292;11.820;2023-09-19T02:32:51;28.13;;;12.02;;
67721;SDS011;58309;45.292;11.820;2023-09-19T02:35:17;23.63;;;11.45;;
67721;SDS011;58309;45.292;11.820;2023-09-19T02:37:46;25.63;;;12.35;;
67721;SDS011;58309;45.292;11.820;2023-09-19T02:40:12;22.95;;;12.48;;
67721;SDS011;58309;45.292;11.820;2023-09-19T02:42:47;24.42;;;12.15;;
67721;SDS011;58309;45.292;11.820;2023-09-19T02:45:17;25.42;;;11.50;;
67721;SDS011;58309;45.292;11.820;2023-09-19T02:47:44;27.67;;;11.68;;
67721;SDS011;58309;45.292;11.820;2023-09-19T02:50:11;28.33;;;11.60;;
67721;SDS011;58309;45.292;11.820;2023-09-19T02:52:37;24.20;;;10.32;;
67721;SDS011;58309;45.292;11.820;2023-09-19T02:55:03;24.88;;;10.27;;
67721;SDS011;58309;45.292;11.820;2023-09-19T02:57:30;22.65;;;10.15;;
67721;SDS011;58309;45.292;11.820;2023-09-19T02:59:58;26.83;;;9.30;;
67721;SDS011;58309;45.292;11.820;2023-09-19T03:02:25;22.10;;;9.52;;
67721;SDS011;58309;45.292;11.820;2023-09-19T03:04:53;18.60;;;9.77;;
67721;SDS011;58309;45.292;11.820;2023-09-19T03:07:18;34.63;;;9.75;;
67721;SDS011;58309;45.292;11.820;2023-09-19T03:09:44;25.05;;;10.25;;
67721;SDS011;58309;45.292;11.820;2023-09-19T03:12:10;17.90;;;8.77;;
67721;SDS011;58309;45.292;11.820;2023-09-19T03:14:36;23.67;;;10.20;;
67721;SDS011;58309;45.292;11.820;2023-09-19T03:17:02;24.33;;;8.88;;
67721;SDS011;58309;45.292;11.820;2023-09-19T03:19:30;22.40;;;9.68;;
67721;SDS011;58309;45.292;11.820;2023-09-19T03:21:58;27.08;;;8.98;;
67721;SDS011;58309;45.292;11.820;2023-09-19T03:24:24;32.42;;;10.32;;
67721;SDS011;58309;45.292;11.820;2023-09-19T03:26:50;24.25;;;9.55;;
67721;SDS011;58309;45.292;11.820;2023-09-19T03:29:16;26.60;;;9.75;;
67721;SDS011;58309;45.292;11.820;2023-09-19T03:31:42;21.17;;;9.90;;
67721;SDS011;58309;45.292;11.820;2023-09-19T03:34:08;22.67;;;9.15;;
67721;SDS011;58309;45.292;11.820;2023-09-19T03:36:34;27.42;;;8.98;;
67721;SDS011;58309;45.292;11.820;2023-09-19T03:39:00;18.85;;;8.38;;
67721;SDS011;58309;45.292;11.820;2023-09-19T03:41:25;19.33;;;8.48;;
67721;SDS011;58309;45.292;11.820;2023-09-19T03:43:51;21.75;;;7.00;;
67721;SDS011;58309;45.292;11.820;2023-09-19T03:46:17;17.52;;;6.72;;
67721;SDS011;58309;45.292;11.820;2023-09-19T03:48:42;16.42;;;5.65;;
67721;SDS011;58309;45.292;11.820;2023-09-19T03:51:08;16.90;;;7.18;;
67721;SDS011;58309;45.292;11.820;2023-09-19T03:53:34;17.45;;;6.95;;
67721;SDS011;58309;45.292;11.820;2023-09-19T03:55:59;15.25;;;6.55;;
67721;SDS011;58309;45.292;11.820;2023-09-19T03:58:25;16.17;;;6.50;;
67721;SDS011;58309;45.292;11.820;2023-09-19T04:00:54;18.48;;;5.95;;
67721;SDS011;58309;45.292;11.820;2023-09-19T04:03:20;18.42;;;5.93;;
67721;SDS011;58309;45.292;11.820;2023-09-19T04:05:46;14.93;;;5.35;;
67721;SDS011;58309;45.292;11.820;2023-09-19T04:08:15;18.33;;;5.78;;
67721;SDS011;58309;45.292;11.820;2023-09-19T04:10:43;16.85;;;5.65;;
67721;SDS011;58309;45.292;11.820;2023-09-19T04:13:10;19.10;;;5.00;;
67721;SDS011;58309;45.292;11.820;2023-09-19T04:15:36;20.92;;;4.85;;
67721;SDS011;58309;45.292;11.820;2023-09-19T04:18:02;14.40;;;5.00;;
67721;SDS011;58309;45.292;11.820;2023-09-19T04:20:28;17.02;;;4.80;;
67721;SDS011;58309;45.292;11.820;2023-09-19T04:22:54;16.73;;;4.90;;
67721;SDS011;58309;45.292;11.820;2023-09-19T04:25:20;19.15;;;4.93;;
67721;SDS011;58309;45.292;11.820;2023-09-19T04:27:46;15.88;;;5.15;;
67721;SDS011;58309;45.292;11.820;2023-09-19T04:30:11;15.48;;;4.85;;
67721;SDS011;58309;45.292;11.820;2023-09-19T04:32:40;18.90;;;4.53;;
67721;SDS011;58309;45.292;11.820;2023-09-19T04:35:07;12.50;;;4.75;;
67721;SDS011;58309;45.292;11.820;2023-09-19T04:37:38;20.08;;;4.85;;
67721;SDS011;58309;45.292;11.820;2023-09-19T04:40:08;18.80;;;4.78;;
67721;SDS011;58309;45.292;11.820;2023-09-19T04:42:43;13.80;;;4.85;;
67721;SDS011;58309;45.292;11.820;2023-09-19T04:45:09;12.48;;;4.93;;
67721;SDS011;58309;45.292;11.820;2023-09-19T04:47:35;26.30;;;5.38;;
67721;SDS011;58309;45.292;11.820;2023-09-19T04:50:08;14.23;;;6.03;;
67721;SDS011;58309;45.292;11.820;2023-09-19T04:52:37;18.60;;;6.20;;
67721;SDS011;58309;45.292;11.820;2023-09-19T04:55:08;16.73;;;6.22;;
67721;SDS011;58309;45.292;11.820;2023-09-19T04:57:41;20.67;;;6.13;;
67721;SDS011;58309;45.292;11.820;2023-09-19T05:00:07;18.35;;;6.03;;
67721;SDS011;58309;45.292;11.820;2023-09-19T05:02:37;20.38;;;6.78;;
67721;SDS011;58309;45.292;11.820;2023-09-19T05:05:03;17.25;;;6.07;;
67721;SDS011;58309;45.292;11.820;2023-09-19T05:07:30;20.65;;;6.40;;
67721;SDS011;58309;45.292;11.820;2023-09-19T05:09:55;20.65;;;7.25;;
67721;SDS011;58309;45.292;11.820;2023-09-19T05:12:20;20.35;;;7.85;;
67721;SDS011;58309;45.292;11.820;2023-09-19T05:14:46;23.67;;;7.28;;
67721;SDS011;58309;45.292;11.820;2023-09-19T05:17:12;20.67;;;7.40;;
67721;SDS011;58309;45.292;11.820;2023-09-19T05:19:38;19.67;;;7.75;;
67721;SDS011;58309;45.292;11.820;2023-09-19T05:22:04;25.00;;;8.10;;
67721;SDS011;58309;45.292;11.820;2023-09-19T05:24:29;19.75;;;7.65;;
67721;SDS011;58309;45.292;11.820;2023-09-19T05:26:56;22.95;;;8.00;;
67721;SDS011;58309;45.292;11.820;2023-09-19T05:29:22;18.45;;;7.40;;
67721;SDS011;58309;45.292;11.820;2023-09-19T05:31:47;18.65;;;7.80;;
67721;SDS011;58309;45.292;11.820;2023-09-19T05:34:14;21.77;;;7.75;;
67721;SDS011;58309;45.292;11.820;2023-09-19T05:36:40;23.05;;;7.53;;
67721;SDS011;58309;45.292;11.820;2023-09-19T05:39:05;22.95;;;8.60;;
67721;SDS011;58309;45.292;11.820;2023-09-19T05:41:34;27.23;;;7.50;;
67721;SDS011;58309;45.292;11.820;2023-09-19T05:44:02;17.33;;;7.53;;
67721;SDS011;58309;45.292;11.820;2023-09-19T05:46:28;22.52;;;8.57;;
67721;SDS011;58309;45.292;11.820;2023-09-19T05:48:55;22.15;;;9.40;;
67721;SDS011;58309;45.292;11.820;2023-09-19T05:51:22;21.25;;;8.45;;
67721;SDS011;58309;45.292;11.820;2023-09-19T05:53:48;23.63;;;8.05;;
67721;SDS011;58309;45.292;11.820;2023-09-19T05:56:14;20.33;;;8.38;;
67721;SDS011;58309;45.292;11.820;2023-09-19T05:58:40;23.77;;;7.57;;
67721;SDS011;58309;45.292;11.820;2023-09-19T06:01:09;25.73;;;8.82;;
67721;SDS011;58309;45.292;11.820;2023-09-19T06:03:35;21.52;;;8.75;;
67721;SDS011;58309;45.292;11.820;2023-09-19T06:06:01;16.77;;;8.00;;
67721;SDS011;58309;45.292;11.820;2023-09-19T06:08:27;20.55;;;9.25;;
67721;SDS011;58309;45.292;11.820;2023-09-19T06:10:54;21.73;;;8.63;;
67721;SDS011;58309;45.292;11.820;2023-09-19T06:13:19;21.42;;;8.77;;
67721;SDS011;58309;45.292;11.820;2023-09-19T06:15:45;21.08;;;8.82;;
67721;SDS011;58309;45.292;11.820;2023-09-19T06:18:12;27.17;;;9.07;;
67721;SDS011;58309;45.292;11.820;2023-09-19T06:20:44;19.83;;;9.38;;
67721;SDS011;58309;45.292;11.820;2023-09-19T06:23:16;22.52;;;9.25;;
67721;SDS011;58309;45.292;11.820;2023-09-19T06:25:42;17.73;;;9.35;;
67721;SDS011;58309;45.292;11.820;2023-09-19T06:28:08;18.48;;;8.15;;
67721;SDS011;58309;45.292;11.820;2023-09-19T06:30:37;18.60;;;8.68;;
67721;SDS011;58309;45.292;11.820;2023-09-19T06:33:06;26.15;;;8.65;;
67721;SDS011;58309;45.292;11.820;2023-09-19T06:35:33;23.33;;;9.30;;
67721;SDS011;58309;45.292;11.820;2023-09-19T06:37:59;20.42;;;7.80;;
67721;SDS011;58309;45.292;11.820;2023-09-19T06:40:28;21.13;;;7.05;;
67721;SDS011;58309;45.292;11.820;2023-09-19T06:42:53;19.33;;;8.07;;
67721;SDS011;58309;45.292;11.820;2023-09-19T06:45:21;19.27;;;8.05;;
67721;SDS011;58309;45.292;11.820;2023-09-19T06:47:47;17.00;;;7.30;;
67721;SDS011;58309;45.292;11.820;2023-09-19T06:50:20;19.25;;;7.53;;
67721;SDS011;58309;45.292;11.820;2023-09-19T06:52:51;23.02;;;8.00;;
67721;SDS011;58309;45.292;11.820;2023-09-19T06:55:19;17.83;;;7.10;;
67721;SDS011;58309;45.292;11.820;2023-09-19T06:57:45;23.05;;;7.60;;
67721;SDS011;58309;45.292;11.820;2023-09-19T07:00:11;21.48;;;8.43;;
67721;SDS011;58309;45.292;11.820;2023-09-19T07:02:43;21.73;;;8.25;;
67721;SDS011;58309;45.292;11.820;2023-09-19T07:05:19;25.25;;;7.45;;
67721;SDS011;58309;45.292;11.820;2023-09-19T07:07:46;21.17;;;8.32;;
67721;SDS011;58309;45.292;11.820;2023-09-19T07:10:11;20.30;;;8.35;;
67721;SDS011;58309;45.292;11.820;2023-09-19T07:12:38;19.35;;;8.13;;
67721;SDS011;58309;45.292;11.820;2023-09-19T07:15:03;20.80;;;8.52;;
67721;SDS011;58309;45.292;11.820;2023-09-19T07:17:31;23.02;;;9.32;;
67721;SDS011;58309;45.292;11.820;2023-09-19T07:19:58;17.73;;;7.50;;
67721;SDS011;58309;45.292;11.820;2023-09-19T07:22:23;21.05;;;8.07;;
67721;SDS011;58309;45.292;11.820;2023-09-19T07:24:49;15.15;;;8.00;;
67721;SDS011;58309;45.292;11.820;2023-09-19T07:27:14;21.35;;;8.30;;
67721;SDS011;58309;45.292;11.820;2023-09-19T07:29:40;16.30;;;8.85;;
67721;SDS011;58309;45.292;11.820;2023-09-19T07:32:05;18.67;;;7.22;;
67721;SDS011;58309;45.292;11.820;2023-09-19T07:34:32;20.95;;;7.45;;
67721;SDS011;58309;45.292;11.820;2023-09-19T07:36:57;21.10;;;7.90;;
67721;SDS011;58309;45.292;11.820;2023-09-19T07:39:23;26.13;;;8.18;;
67721;SDS011;58309;45.292;11.820;2023-09-19T07:41:49;17.27;;;7.45;;
67721;SDS011;58309;45.292;11.820;2023-09-19T07:44:14;16.77;;;8.18;;
67721;SDS011;58309;45.292;11.820;2023-09-19T07:46:40;18.00;;;7.65;;
67721;SDS011;58309;45.292;11.820;2023-09-19T07:49:06;18.65;;;8.52;;
67721;SDS011;58309;45.292;11.820;2023-09-19T07:51:31;18.35;;;7.65;;
67721;SDS011;58309;45.292;11.820;2023-09-19T07:53:58;19.63;;;8.00;;
67721;SDS011;58309;45.292;11.820;2023-09-19T07:56:23;17.38;;;7.50;;
67721;SDS011;58309;45.292;11.820;2023-09-19T07:58:50;18.38;;;7.30;;
67721;SDS011;58309;45.292;11.820;2023-09-19T08:01:17;18.35;;;7.53;;
67721;SDS011;58309;45.292;11.820;2023-09-19T08:03:42;17.25;;;7.85;;
67721;SDS011;58309;45.292;11.820;2023-09-19T08:06:09;20.55;;;7.97;;
67721;SDS011;58309;45.292;11.820;2023-09-19T08:08:35;22.17;;;8.13;;
67721;SDS011;58309;45.292;11.820;2023-09-19T08:11:04;13.15;;;6.60;;
67721;SDS011;58309;45.292;11.820;2023-09-19T08:13:46;17.15;;;7.55;;
67721;SDS011;58309;45.292;11.820;2023-09-19T08:16:14;20.92;;;7.65;;
67721;SDS011;58309;45.292;11.820;2023-09-19T08:18:40;17.50;;;6.82;;
67721;SDS011;58309;45.292;11.820;2023-09-19T08:21:07;15.70;;;6.68;;
67721;SDS011;58309;45.292;11.820;2023-09-19T08:23:35;22.45;;;7.93;;
67721;SDS011;58309;45.292;11.820;2023-09-19T08:26:01;17.35;;;7.03;;
67721;SDS011;58309;45.292;11.820;2023-09-19T08:28:31;19.95;;;7.35;;
67721;SDS011;58309;45.292;11.820;2023-09-19T08:31:01;19.02;;;7.03;;
67721;SDS011;58309;45.292;11.820;2023-09-19T08:33:33;17.75;;;6.70;;
67721;SDS011;58309;45.292;11.820;2023-09-19T08:35:59;16.40;;;6.30;;
67721;SDS011;58309;45.292;11.820;2023-09-19T08:38:25;15.02;;;6.70;;
67721;SDS011;58309;45.292;11.820;2023-09-19T08:40:56;18.38;;;6.50;;
67721;SDS011;58309;45.292;11.820;2023-09-19T08:43:23;17.95;;;6.75;;
67721;SDS011;58309;45.292;11.820;2023-09-19T08:45:49;17.98;;;6.55;;
67721;SDS011;58309;45.292;11.820;2023-09-19T08:48:27;17.83;;;5.93;;
67721;SDS011;58309;45.292;11.820;2023-09-19T08:50:57;18.27;;;5.90;;
67721;SDS011;58309;45.292;11.820;2023-09-19T08:53:50;20.15;;;6.40;;
67721;SDS011;58309;45.292;11.820;2023-09-19T08:56:19;26.33;;;7.57;;
67721;SDS011;58309;45.292;11.820;2023-09-19T08:58:59;19.52;;;6.25;;
67721;SDS011;58309;45.292;11.820;2023-09-19T09:01:28;19.02;;;6.57;;
67721;SDS011;58309;45.292;11.820;2023-09-19T09:03:54;18.60;;;6.05;;
67721;SDS011;58309;45.292;11.820;2023-09-19T09:06:21;19.20;;;6.05;;
67721;SDS011;58309;45.292;11.820;2023-09-19T09:08:48;16.05;;;6.15;;
67721;SDS011;58309;45.292;11.820;2023-09-19T09:11:16;13.30;;;5.18;;
67721;SDS011;58309;45.292;11.820;2023-09-19T09:13:43;15.00;;;5.70;;
67721;SDS011;58309;45.292;11.820;2023-09-19T09:16:09;14.57;;;5.50;;
67721;SDS011;58309;45.292;11.820;2023-09-19T09:18:35;17.92;;;5.28;;
67721;SDS011;58309;45.292;11.820;2023-09-19T09:21:01;16.65;;;5.50;;
67721;SDS011;58309;45.292;11.820;2023-09-19T09:23:29;12.77;;;5.57;;
67721;SDS011;58309;45.292;11.820;2023-09-19T09:25:57;14.40;;;5.18;;
67721;SDS011;58309;45.292;11.820;2023-09-19T09:28:27;16.23;;;5.03;;
67721;SDS011;58309;45.292;11.820;2023-09-19T09:30:55;16.87;;;5.20;;
67721;SDS011;58309;45.292;11.820;2023-09-19T09:33:24;17.27;;;4.95;;
67721;SDS011;58309;45.292;11.820;2023-09-19T09:35:54;16.00;;;4.68;;
67721;SDS011;58309;45.292;11.820;2023-09-19T09:38:46;12.13;;;4.47;;
67721;SDS011;58309;45.292;11.820;2023-09-19T09:41:16;15.05;;;4.35;;
67721;SDS011;58309;45.292;11.820;2023-09-19T09:43:52;12.68;;;3.85;;
67721;SDS011;58309;45.292;11.820;2023-09-19T09:46:19;12.98;;;3.72;;
67721;SDS011;58309;45.292;11.820;2023-09-19T09:52:12;14.93;;;4.45;;
67721;SDS011;58309;45.292;11.820;2023-09-19T09:54:32;9.88;;;3.70;;
67721;SDS011;58309;45.292;11.820;2023-09-19T09:57:02;14.75;;;4.10;;
67721;SDS011;58309;45.292;11.820;2023-09-19T10:02:30;13.50;;;4.20;;
67721;SDS011;58309;45.292;11.820;2023-09-19T10:05:10;16.87;;;4.37;;
67721;SDS011;58309;45.292;11.820;2023-09-19T10:07:47;17.48;;;4.35;;
67721;SDS011;58309;45.292;11.820;2023-09-19T10:13:12;14.75;;;4.25;;
67721;SDS011;58309;45.292;11.820;2023-09-19T10:15:42;11.00;;;3.60;;
67721;SDS011;58309;45.292;11.820;2023-09-19T10:18:16;15.70;;;4.07;;
67721;SDS011;58309;45.292;11.820;2023-09-19T10:20:45;13.05;;;4.50;;
67721;SDS011;58309;45.292;11.820;2023-09-19T10:23:11;11.85;;;4.60;;
67721;SDS011;58309;45.292;11.820;2023-09-19T10:25:41;10.50;;;4.65;;
67721;SDS011;58309;45.292;11.820;2023-09-19T10:28:09;12.75;;;5.22;;
67721;SDS011;58309;45.292;11.820;2023-09-19T10:30:37;12.77;;;4.35;;
67721;SDS011;58309;45.292;11.820;2023-09-19T10:33:10;15.40;;;4.95;;
67721;SDS011;58309;45.292;11.820;2023-09-19T10:35:38;14.05;;;4.28;;
67721;SDS011;58309;45.292;11.820;2023-09-19T10:38:07;11.20;;;4.00;;
67721;SDS011;58309;45.292;11.820;2023-09-19T10:40:35;11.00;;;4.38;;
67721;SDS011;58309;45.292;11.820;2023-09-19T10:43:05;11.75;;;4.20;;
67721;SDS011;58309;45.292;11.820;2023-09-19T10:45:35;14.23;;;4.72;;
67721;SDS011;58309;45.292;11.820;2023-09-19T10:48:03;10.45;;;4.10;;
67721;SDS011;58309;45.292;11.820;2023-09-19T10:50:31;17.33;;;4.40;;
67721;SDS011;58309;45.292;11.820;2023-09-19T10:53:02;11.52;;;3.92;;
67721;SDS011;58309;45.292;11.820;2023-09-19T10:55:33;12.55;;;3.90;;
67721;SDS011;58309;45.292;11.820;2023-09-19T10:58:00;14.90;;;3.92;;
67721;SDS011;58309;45.292;11.820;2023-09-19T11:00:28;13.13;;;3.60;;
67721;SDS011;58309;45.292;11.820;2023-09-19T11:05:40;13.38;;;3.72;;
67721;SDS011;58309;45.292;11.820;2023-09-19T11:08:10;11.23;;;3.58;;
67721;SDS011;58309;45.292;11.820;2023-09-19T11:10:47;13.02;;;3.70;;
67721;SDS011;58309;45.292;11.820;2023-09-19T11:26:47;6.30;;;3.10;;
67721;SDS011;58309;45.292;11.820;2023-09-19T11:29:26;11.23;;;3.25;;
67721;SDS011;58309;45.292;11.820;2023-09-19T11:31:54;10.05;;;2.92;;
67721;SDS011;58309;45.292;11.820;2023-09-19T11:40:05;11.30;;;2.90;;
67721;SDS011;58309;45.292;11.820;2023-09-19T11:42:43;11.73;;;3.10;;
67721;SDS011;58309;45.292;11.820;2023-09-19T11:48:05;9.43;;;3.22;;
67721;SDS011;58309;45.292;11.820;2023-09-19T11:50:32;8.10;;;2.85;;
67721;SDS011;58309;45.292;11.820;2023-09-19T11:53:00;6.47;;;3.30;;
67721;SDS011;58309;45.292;11.820;2023-09-19T11:55:28;10.20;;;3.10;;
67721;SDS011;58309;45.292;11.820;2023-09-19T11:57:57;7.82;;;2.75;;
67721;SDS011;58309;45.292;11.820;2023-09-19T12:00:24;9.18;;;2.92;;
67721;SDS011;58309;45.292;11.820;2023-09-19T12:02:50;10.63;;;3.17;;
67721;SDS011;58309;45.292;11.820;2023-09-19T12:05:30;13.82;;;2.83;;
67721;SDS011;58309;45.292;11.820;2023-09-19T12:07:58;15.05;;;3.05;;
67721;SDS011;58309;45.292;11.820;2023-09-19T12:10:24;6.25;;;2.80;;
67721;SDS011;58309;45.292;11.820;2023-09-19T12:12:49;9.30;;;3.08;;
67721;SDS011;58309;45.292;11.820;2023-09-19T12:15:22;8.65;;;2.85;;
67721;SDS011;58309;45.292;11.820;2023-09-19T12:17:53;14.07;;;3.47;;
67721;SDS011;58309;45.292;11.820;2023-09-19T12:20:19;9.27;;;3.10;;
67721;SDS011;58309;45.292;11.820;2023-09-19T12:22:46;8.57;;;2.95;;
67721;SDS011;58309;45.292;11.820;2023-09-19T12:25:14;11.88;;;3.35;;
67721;SDS011;58309;45.292;11.820;2023-09-19T12:27:45;11.90;;;3.03;;
67721;SDS011;58309;45.292;11.820;2023-09-19T12:30:20;9.10;;;2.95;;
67721;SDS011;58309;45.292;11.820;2023-09-19T12:32:53;11.70;;;3.25;;
67721;SDS011;58309;45.292;11.820;2023-09-19T12:35:31;9.73;;;2.92;;
67721;SDS011;58309;45.292;11.820;2023-09-19T12:37:59;14.38;;;3.42;;
67721;SDS011;58309;45.292;11.820;2023-09-19T12:40:25;6.78;;;3.03;;
67721;SDS011;58309;45.292;11.820;2023-09-19T12:42:54;6.88;;;3.05;;
67721;SDS011;58309;45.292;11.820;2023-09-19T12:45:20;9.57;;;2.90;;
67721;SDS011;58309;45.292;11.820;2023-09-19T12:53:36;9.27;;;3.17;;
67721;SDS011;58309;45.292;11.820;2023-09-19T12:56:07;9.40;;;2.97;;
67721;SDS011;58309;45.292;11.820;2023-09-19T12:58:56;10.80;;;3.13;;
67721;SDS011;58309;45.292;11.820;2023-09-19T13:01:21;7.68;;;2.80;;
67721;SDS011;58309;45.292;11.820;2023-09-19T13:06:57;9.50;;;3.05;;
67721;SDS011;58309;45.292;11.820;2023-09-19T13:09:26;10.85;;;3.20;;
67721;SDS011;58309;45.292;11.820;2023-09-19T13:12:03;8.18;;;3.05;;
67721;SDS011;58309;45.292;11.820;2023-09-19T13:14:31;9.95;;;3.25;;
67721;SDS011;58309;45.292;11.820;2023-09-19T13:17:02;9.73;;;3.28;;
67721;SDS011;58309;45.292;11.820;2023-09-19T13:19:44;12.18;;;3.35;;
67721;SDS011;58309;45.292;11.820;2023-09-19T13:25:03;5.20;;;3.03;;
67721;SDS011;58309;45.292;11.820;2023-09-19T13:27:29;5.68;;;3.20;;
67721;SDS011;58309;45.292;11.820;2023-09-19T13:29:55;9.40;;;3.10;;
67721;SDS011;58309;45.292;11.820;2023-09-19T13:32:20;11.77;;;3.30;;
67721;SDS011;58309;45.292;11.820;2023-09-19T13:34:46;8.93;;;2.92;;
67721;SDS011;58309;45.292;11.820;2023-09-19T13:37:11;10.38;;;2.88;;
67721;SDS011;58309;45.292;11.820;2023-09-19T13:39:38;12.45;;;3.40;;
67721;SDS011;58309;45.292;11.820;2023-09-19T13:42:08;9.73;;;3.13;;
67721;SDS011;58309;45.292;11.820;2023-09-19T13:44:36;9.30;;;2.60;;
67721;SDS011;58309;45.292;11.820;2023-09-19T13:47:03;8.80;;;2.88;;
67721;SDS011;58309;45.292;11.820;2023-09-19T13:49:34;7.00;;;2.80;;
67721;SDS011;58309;45.292;11.820;2023-09-19T13:52:00;8.15;;;3.00;;
67721;SDS011;58309;45.292;11.820;2023-09-19T13:54:29;8.70;;;3.17;;
67721;SDS011;58309;45.292;11.820;2023-09-19T13:56:54;7.97;;;2.95;;
67721;SDS011;58309;45.292;11.820;2023-09-19T13:59:20;9.27;;;3.22;;
67721;SDS011;58309;45.292;11.820;2023-09-19T14:01:51;8.52;;;2.90;;
67721;SDS011;58309;45.292;11.820;2023-09-19T14:04:19;7.93;;;3.15;;
67721;SDS011;58309;45.292;11.820;2023-09-19T14:06:45;8.05;;;2.80;;
67721;SDS011;58309;45.292;11.820;2023-09-19T14:09:11;8.65;;;3.08;;
67721;SDS011;58309;45.292;11.820;2023-09-19T14:11:38;9.77;;;3.28;;
67721;SDS011;58309;45.292;11.820;2023-09-19T14:14:04;8.88;;;2.83;;
67721;SDS011;58309;45.292;11.820;2023-09-19T14:16:30;10.93;;;2.95;;
67721;SDS011;58309;45.292;11.820;2023-09-19T14:18:56;9.05;;;2.85;;
67721;SDS011;58309;45.292;11.820;2023-09-19T14:21:23;11.55;;;2.80;;
67721;SDS011;58309;45.292;11.820;2023-09-19T14:23:48;7.85;;;2.63;;
67721;SDS011;58309;45.292;11.820;2023-09-19T14:26:14;7.78;;;3.10;;
67721;SDS011;58309;45.292;11.820;2023-09-19T14:28:41;8.35;;;3.10;;
67721;SDS011;58309;45.292;11.820;2023-09-19T14:31:09;7.15;;;2.80;;
67721;SDS011;58309;45.292;11.820;2023-09-19T14:33:36;7.38;;;2.90;;
67721;SDS011;58309;45.292;11.820;2023-09-19T14:36:03;7.32;;;2.72;;
67721;SDS011;58309;45.292;11.820;2023-09-19T14:38:31;6.93;;;2.50;;
67721;SDS011;58309;45.292;11.820;2023-09-19T14:41:02;12.00;;;2.78;;
67721;SDS011;58309;45.292;11.820;2023-09-19T14:43:29;7.18;;;2.42;;
67721;SDS011;58309;45.292;11.820;2023-09-19T14:46:05;11.05;;;3.00;;
67721;SDS011;58309;45.292;11.820;2023-09-19T14:48:35;4.95;;;2.60;;
67721;SDS011;58309;45.292;11.820;2023-09-19T14:51:04;10.50;;;2.83;;
67721;SDS011;58309;45.292;11.820;2023-09-19T14:53:32;4.57;;;2.58;;
67721;SDS011;58309;45.292;11.820;2023-09-19T14:56:01;10.60;;;2.58;;
67721;SDS011;58309;45.292;11.820;2023-09-19T14:58:30;9.30;;;2.70;;
67721;SDS011;58309;45.292;11.820;2023-09-19T15:01:06;8.25;;;2.70;;
67721;SDS011;58309;45.292;11.820;2023-09-19T15:03:36;11.57;;;2.95;;
67721;SDS011;58309;45.292;11.820;2023-09-19T15:06:02;7.80;;;2.55;;
67721;SDS011;58309;45.292;11.820;2023-09-19T15:08:35;6.38;;;2.50;;
67721;SDS011;58309;45.292;11.820;2023-09-19T15:11:05;6.30;;;2.38;;
67721;SDS011;58309;45.292;11.820;2023-09-19T15:13:35;7.88;;;2.80;;
67721;SDS011;58309;45.292;11.820;2023-09-19T15:16:02;5.75;;;2.45;;
67721;SDS011;58309;45.292;11.820;2023-09-19T15:18:29;4.63;;;2.60;;
67721;SDS011;58309;45.292;11.820;2023-09-19T15:21:02;8.85;;;2.33;;
67721;SDS011;58309;45.292;11.820;2023-09-19T15:23:29;11.10;;;2.75;;
67721;SDS011;58309;45.292;11.820;2023-09-19T15:25:56;6.15;;;2.63;;
67721;SDS011;58309;45.292;11.820;2023-09-19T15:28:22;10.38;;;3.00;;
67721;SDS011;58309;45.292;11.820;2023-09-19T15:30:48;28.02;;;4.40;;
67721;SDS011;58309;45.292;11.820;2023-09-19T15:33:14;11.50;;;2.30;;
67721;SDS011;58309;45.292;11.820;2023-09-19T15:35:40;30.80;;;4.43;;